createdAt,value
2023-02-16T00:01:28.082Z,83.90
2023-02-16T00:03:56.691Z,83.80
2023-02-16T00:06:26.397Z,83.80
2023-02-16T00:08:55.307Z,83.90
2023-02-16T00:11:45.138Z,84.00
2023-02-16T00:14:15.418Z,84.30
2023-02-16T00:16:43.884Z,84.40
2023-02-16T00:19:16.523Z,84.40
2023-02-16T00:21:45.121Z,84.40
2023-02-16T00:24:13.454Z,84.50
2023-02-16T00:26:42.276Z,84.40
2023-02-16T00:29:12.607Z,84.50
2023-02-16T00:31:43.166Z,84.40
2023-02-16T00:34:23.887Z,84.30
2023-02-16T00:36:55.018Z,84.30
2023-02-16T00:39:24.998Z,84.30
2023-02-16T00:41:55.533Z,84.20
2023-02-16T00:44:32.031Z,84.30
2023-02-16T00:47:04.301Z,84.30
2023-02-16T00:49:32.517Z,84.30
2023-02-16T00:52:00.565Z,84.30
2023-02-16T00:54:30.448Z,84.20
2023-02-16T00:57:00.061Z,84.00
2023-02-16T00:59:29.007Z,83.80
2023-02-16T01:01:57.674Z,83.80
2023-02-16T01:04:27.760Z,83.80
2023-02-16T01:07:10.735Z,84.00
2023-02-16T01:09:56.049Z,84.00
2023-02-16T01:12:24.649Z,84.30
2023-02-16T01:14:58.609Z,84.30
2023-02-16T01:17:26.933Z,84.40
2023-02-16T01:19:58.026Z,84.50
2023-02-16T01:22:27.118Z,84.60
2023-02-16T01:24:57.900Z,84.50
2023-02-16T01:27:27.160Z,84.50
2023-02-16T01:29:55.538Z,84.50
2023-02-16T01:32:23.756Z,84.30
2023-02-16T01:34:51.713Z,84.20
2023-02-16T01:37:21.879Z,84.10
2023-02-16T01:39:49.870Z,84.00
2023-02-16T01:42:24.490Z,84.00
2023-02-16T01:44:54.057Z,84.10
2023-02-16T01:47:30.913Z,84.10
2023-02-16T01:50:02.031Z,84.10
2023-02-16T01:52:34.725Z,84.10
2023-02-16T01:55:06.246Z,84.00
2023-02-16T01:57:39.044Z,84.00
2023-02-16T02:00:12.854Z,84.00
2023-02-16T02:02:52.652Z,84.00
2023-02-16T02:05:37.185Z,84.10
2023-02-16T02:08:18.042Z,84.30
2023-02-16T02:10:52.931Z,84.40
2023-02-16T02:13:22.489Z,84.40
2023-02-16T02:15:51.083Z,84.40
2023-02-16T02:18:19.312Z,84.40
2023-02-16T02:21:10.550Z,84.50
2023-02-16T02:23:46.262Z,84.50
2023-02-16T02:26:29.606Z,84.40
2023-02-16T02:29:05.241Z,84.30
2023-02-16T02:31:39.617Z,84.20
2023-02-16T02:34:14.298Z,84.20
2023-02-16T02:36:47.050Z,84.20
2023-02-16T02:39:21.948Z,84.10
2023-02-16T02:42:05.217Z,84.20
2023-02-16T02:44:47.211Z,84.00
2023-02-16T02:47:15.456Z,84.00
2023-02-16T02:49:50.296Z,84.00
2023-02-16T02:52:18.771Z,84.10
2023-02-16T02:55:05.535Z,84.10
2023-02-16T02:57:53.329Z,84.10
2023-02-16T03:00:46.755Z,84.10
2023-02-16T03:03:18.901Z,84.00
2023-02-16T03:05:49.056Z,84.00
2023-02-16T03:08:18.563Z,84.10
2023-02-16T03:11:07.094Z,84.20
2023-02-16T03:13:37.718Z,84.30
2023-02-16T03:16:09.837Z,84.50
2023-02-16T03:18:56.148Z,84.50
2023-02-16T03:21:41.937Z,84.60
2023-02-16T03:24:30.127Z,84.60
2023-02-16T03:27:15.949Z,84.50
2023-02-16T03:29:45.075Z,84.40
2023-02-16T03:32:15.079Z,84.20
2023-02-16T03:34:43.664Z,84.00
2023-02-16T03:37:11.926Z,84.10
2023-02-16T03:39:54.485Z,84.00
2023-02-16T03:42:24.273Z,84.10
2023-02-16T03:44:53.564Z,84.10
2023-02-16T03:47:23.307Z,84.30
2023-02-16T03:49:51.532Z,84.30
2023-02-16T03:52:19.804Z,84.30
2023-02-16T03:54:47.929Z,84.50
2023-02-16T03:57:17.033Z,84.50
2023-02-16T03:59:45.105Z,84.60
2023-02-16T04:02:13.462Z,84.50
2023-02-16T04:04:43.545Z,84.40
2023-02-16T04:07:11.797Z,84.40
2023-02-16T04:09:39.881Z,84.40
2023-02-16T04:12:26.153Z,84.60
2023-02-16T04:14:54.688Z,84.70
2023-02-16T04:17:23.003Z,84.70
2023-02-16T04:19:53.551Z,84.70
2023-02-16T04:22:21.883Z,84.80
2023-02-16T04:24:49.906Z,84.50
2023-02-16T04:27:18.150Z,84.70
2023-02-16T04:29:46.520Z,84.80
2023-02-16T04:32:15.317Z,85.00
2023-02-16T04:34:43.315Z,84.70
2023-02-16T04:37:12.676Z,84.80
2023-02-16T04:39:40.893Z,84.70
2023-02-16T04:42:09.204Z,84.50
2023-02-16T04:44:37.668Z,84.50
2023-02-16T04:47:06.227Z,84.50
2023-02-16T04:49:34.467Z,84.40
2023-02-16T04:52:04.296Z,84.30
2023-02-16T04:54:37.018Z,84.40
2023-02-16T04:57:05.297Z,84.40
2023-02-16T04:59:33.901Z,84.30
2023-02-16T05:02:03.230Z,84.20
2023-02-16T05:04:31.281Z,84.20
2023-02-16T05:06:59.667Z,83.90
2023-02-16T05:09:27.965Z,83.90
2023-02-16T05:12:15.299Z,83.90
2023-02-16T05:14:45.060Z,83.90
2023-02-16T05:17:14.611Z,83.80
2023-02-16T05:19:43.561Z,83.80
2023-02-16T05:22:12.230Z,83.70
2023-02-16T05:24:40.631Z,83.60
2023-02-16T05:27:12.494Z,83.60
2023-02-16T05:29:41.072Z,83.70
2023-02-16T05:32:09.214Z,83.70
2023-02-16T05:34:37.338Z,83.70
2023-02-16T05:37:05.461Z,83.70
2023-02-16T05:39:35.795Z,83.70
2023-02-16T05:42:04.295Z,84.10
2023-02-16T05:44:34.771Z,83.90
2023-02-16T05:47:03.090Z,83.90
2023-02-16T05:49:31.450Z,83.80
2023-02-16T05:51:59.996Z,83.70
2023-02-16T05:54:28.179Z,83.50
2023-02-16T05:56:56.452Z,83.60
2023-02-16T05:59:24.622Z,83.70
2023-02-16T06:01:55.172Z,83.90
2023-02-16T06:04:25.189Z,83.90
2023-02-16T06:06:53.698Z,84.00
2023-02-16T06:09:21.984Z,83.90
2023-02-16T06:11:50.256Z,83.90
2023-02-16T06:14:19.170Z,83.90
2023-02-16T06:16:49.159Z,83.90
2023-02-16T06:19:19.479Z,83.80
2023-02-16T06:21:48.135Z,83.80
2023-02-16T06:24:16.572Z,83.70
2023-02-16T06:26:44.763Z,83.70
2023-02-16T06:29:12.842Z,83.60
2023-02-16T06:31:41.026Z,83.50
2023-02-16T06:34:09.372Z,83.50
2023-02-16T06:36:42.332Z,83.60
2023-02-16T06:39:10.744Z,83.70
2023-02-16T06:41:41.324Z,83.60
2023-02-16T06:44:10.199Z,83.50
2023-02-16T06:46:38.501Z,83.50
2023-02-16T06:49:06.662Z,83.50
2023-02-16T06:51:34.906Z,80.90
2023-02-16T06:54:04.826Z,81.00
2023-02-16T06:56:37.772Z,81.10
2023-02-16T06:59:06.099Z,81.10
2023-02-16T07:01:34.342Z,81.20
2023-02-16T07:04:03.077Z,81.20
2023-02-16T07:06:32.152Z,81.30
2023-02-16T07:09:00.372Z,81.30
2023-02-16T07:11:30.515Z,81.30
2023-02-16T07:13:58.629Z,81.30
2023-02-16T07:16:29.772Z,81.30
2023-02-16T07:19:01.520Z,81.30
2023-02-16T07:21:29.598Z,81.30
2023-02-16T07:24:00.432Z,81.30
2023-02-16T07:26:30.476Z,81.50
2023-02-16T07:28:58.924Z,81.50
2023-02-16T07:31:27.828Z,81.50
2023-02-16T07:33:56.640Z,81.60
2023-02-16T07:36:25.122Z,81.50
2023-02-16T07:38:53.885Z,81.70
2023-02-16T07:41:22.426Z,81.70
2023-02-16T07:43:52.241Z,81.80
2023-02-16T07:46:20.786Z,81.70
2023-02-16T07:48:50.235Z,81.80
2023-02-16T07:51:22.261Z,81.60
2023-02-16T07:53:50.232Z,81.60
2023-02-16T07:56:22.989Z,81.40
2023-02-16T07:58:54.185Z,81.40
2023-02-16T08:01:22.669Z,81.40
2023-02-16T08:03:53.361Z,81.40
2023-02-16T08:06:22.794Z,81.30
2023-02-16T08:08:51.826Z,81.50
2023-02-16T08:11:21.952Z,81.40
2023-02-16T08:13:50.585Z,81.30
2023-02-16T08:16:21.454Z,81.30
2023-02-16T08:18:51.122Z,81.60
2023-02-16T08:21:19.936Z,81.40
2023-02-16T08:23:49.305Z,81.40
2023-02-16T08:26:18.433Z,81.60
2023-02-16T08:28:48.236Z,81.50
2023-02-16T08:31:17.679Z,81.60
2023-02-16T08:33:48.135Z,81.40
2023-02-16T08:36:19.652Z,81.70
2023-02-16T08:38:50.498Z,81.80
2023-02-16T08:41:19.165Z,81.90
2023-02-16T08:43:47.987Z,81.80
2023-02-16T08:46:17.522Z,82.00
2023-02-16T08:48:47.543Z,81.90
2023-02-16T08:51:16.304Z,81.80
2023-02-16T08:53:44.852Z,81.90
2023-02-16T08:56:13.751Z,81.80
2023-02-16T08:58:42.938Z,81.50
2023-02-16T09:01:12.285Z,81.70
2023-02-16T09:03:43.250Z,81.70
2023-02-16T09:06:14.454Z,81.60
2023-02-16T09:08:42.899Z,81.60
2023-02-16T09:11:13.585Z,81.50
2023-02-16T09:13:42.132Z,81.30
2023-02-16T09:16:11.559Z,81.40
2023-02-16T09:18:40.299Z,81.20
2023-02-16T09:21:11.320Z,81.30
2023-02-16T09:23:42.723Z,81.00
2023-02-16T09:26:13.426Z,80.90
2023-02-16T09:28:41.710Z,80.80
2023-02-16T09:31:10.943Z,80.70
2023-02-16T09:33:39.315Z,80.40
2023-02-16T09:36:07.890Z,80.50
2023-02-16T09:38:36.948Z,80.50
2023-02-16T09:41:21.739Z,80.30
2023-02-16T09:43:53.925Z,80.20
2023-02-16T09:46:23.946Z,80.20
2023-02-16T09:48:53.218Z,79.90
2023-02-16T09:51:33.767Z,79.60
2023-02-16T09:54:04.638Z,80.00
2023-02-16T09:56:37.359Z,79.60
2023-02-16T09:59:11.359Z,79.70
2023-02-16T10:01:44.534Z,79.90
2023-02-16T10:04:20.387Z,79.30
2023-02-16T10:06:54.075Z,78.90
2023-02-16T10:09:24.202Z,77.90
2023-02-16T10:11:56.865Z,78.10
2023-02-16T10:14:33.068Z,76.70
2023-02-16T10:17:05.767Z,76.70
2023-02-16T10:19:36.176Z,77.10
2023-02-16T10:22:06.862Z,77.10
2023-02-16T10:24:40.855Z,77.70
2023-02-16T10:27:14.835Z,77.70
2023-02-16T10:29:43.243Z,76.70
2023-02-16T10:32:17.367Z,77.30
2023-02-16T10:34:50.197Z,76.30
2023-02-16T10:37:28.709Z,76.10
2023-02-16T10:40:03.195Z,75.50
2023-02-16T10:42:36.293Z,75.40
2023-02-16T10:51:55.880Z,76.00
2023-02-16T10:54:27.050Z,75.10
2023-02-16T11:00:28.041Z,74.50
2023-02-16T11:02:56.939Z,74.60
2023-02-16T11:05:33.937Z,74.10
2023-02-16T11:08:02.971Z,73.80
2023-02-16T11:10:42.605Z,73.70
2023-02-16T11:13:21.739Z,74.00
2023-02-16T11:15:54.637Z,74.80
2023-02-16T11:18:29.819Z,74.40
2023-02-16T11:20:58.808Z,74.50
2023-02-16T11:23:28.954Z,73.90
2023-02-16T11:25:58.942Z,73.30
2023-02-16T11:28:28.015Z,72.10
2023-02-16T11:31:03.360Z,71.90
2023-02-16T11:33:31.668Z,71.90
2023-02-16T11:36:02.404Z,72.40
2023-02-16T11:38:32.050Z,72.20
2023-02-16T11:41:00.614Z,72.20
2023-02-16T11:43:29.896Z,72.80
2023-02-16T11:45:59.955Z,72.90
2023-02-16T11:48:31.584Z,72.90
2023-02-16T11:51:02.262Z,72.30
2023-02-16T11:53:32.554Z,72.70
2023-02-16T11:56:14.684Z,72.70
2023-02-16T11:58:42.974Z,72.70
2023-02-16T12:01:19.101Z,72.60
2023-02-16T12:03:54.357Z,73.00
2023-02-16T12:06:31.083Z,72.20
2023-02-16T12:09:04.535Z,72.10
2023-02-16T12:11:40.356Z,72.40
2023-02-16T12:14:24.834Z,70.90
2023-02-16T12:16:57.498Z,70.40
2023-02-16T12:19:31.349Z,69.10
2023-02-16T12:22:02.850Z,69.00
2023-02-16T12:24:35.935Z,69.60
2023-02-16T12:27:05.314Z,68.70
2023-02-16T12:29:41.427Z,67.50
2023-02-16T12:32:19.297Z,67.10
2023-02-16T12:34:54.742Z,64.60
2023-02-16T12:37:26.378Z,63.00
2023-02-16T12:40:00.321Z,60.40
2023-02-16T12:42:50.286Z,58.50
2023-02-16T12:45:20.000Z,57.80
2023-02-16T12:47:51.542Z,54.50
2023-02-16T12:50:24.214Z,53.00
2023-02-16T12:52:55.520Z,53.40
2023-02-16T12:55:27.737Z,54.80
2023-02-16T12:58:03.004Z,57.20
2023-02-16T13:00:40.792Z,57.70
2023-02-16T13:03:24.336Z,56.60
2023-02-16T13:05:58.486Z,56.40
2023-02-16T13:08:31.649Z,55.30
2023-02-16T13:11:04.593Z,54.90
2023-02-16T13:13:36.202Z,56.30
2023-02-16T13:16:20.437Z,57.20
2023-02-16T13:18:57.194Z,59.80
2023-02-16T13:21:49.075Z,61.50
2023-02-16T13:24:21.594Z,62.60
2023-02-16T13:27:01.737Z,64.60
2023-02-16T13:29:41.389Z,65.40
2023-02-16T13:32:17.340Z,66.40
2023-02-16T13:34:56.123Z,67.60
2023-02-16T13:37:36.934Z,67.70
2023-02-16T13:40:21.771Z,69.20
2023-02-16T13:43:11.714Z,70.50
2023-02-16T13:45:41.639Z,70.80
2023-02-16T13:48:14.596Z,70.70
2023-02-16T13:50:47.139Z,71.20
2023-02-16T13:53:21.927Z,72.00
2023-02-16T13:55:50.829Z,72.20
2023-02-16T13:58:30.857Z,72.20
2023-02-16T14:00:59.289Z,72.40
2023-02-16T14:03:38.848Z,72.50
2023-02-16T14:06:25.893Z,72.60
2023-02-16T14:09:21.742Z,72.50
2023-02-16T14:12:02.323Z,72.60
2023-02-16T14:14:31.743Z,72.40
2023-02-16T14:17:15.044Z,72.70
2023-02-16T14:19:50.344Z,72.70
2023-02-16T14:22:19.845Z,72.70
2023-02-16T14:24:54.608Z,72.50
2023-02-16T14:27:41.977Z,72.70
2023-02-16T14:30:16.482Z,73.10
2023-02-16T14:32:48.097Z,73.10
2023-02-16T14:35:19.046Z,72.80
2023-02-16T14:37:53.056Z,72.70
2023-02-16T14:40:25.488Z,73.00
2023-02-16T14:42:56.193Z,73.00
2023-02-16T14:45:38.835Z,73.30
2023-02-16T14:48:14.142Z,73.50
2023-02-16T14:50:54.213Z,73.30
2023-02-16T14:53:39.516Z,72.90
2023-02-16T14:56:15.192Z,72.90
2023-02-16T14:58:49.413Z,72.80
2023-02-16T15:01:18.360Z,72.80
2023-02-16T15:03:48.435Z,73.20
2023-02-16T15:06:22.770Z,73.50
2023-02-16T15:08:58.370Z,73.60
2023-02-16T15:11:31.517Z,73.90
2023-02-16T15:14:08.247Z,74.00
2023-02-16T15:16:40.517Z,74.30
2023-02-16T15:19:10.846Z,73.80
2023-02-16T15:21:39.830Z,74.30
2023-02-16T15:24:22.023Z,73.90
2023-02-16T15:26:55.948Z,74.30
2023-02-16T15:29:26.593Z,74.50
2023-02-16T15:31:56.471Z,74.50
2023-02-16T15:34:29.864Z,74.50
2023-02-16T15:36:58.516Z,74.60
2023-02-16T15:39:42.637Z,74.80
2023-02-16T15:42:22.932Z,75.10
2023-02-16T15:44:52.204Z,75.30
2023-02-16T15:47:23.263Z,75.40
2023-02-16T15:49:51.368Z,75.80
2023-02-16T15:52:21.626Z,75.90
2023-02-16T15:54:49.966Z,76.10
2023-02-16T15:57:22.692Z,76.60
2023-02-16T15:59:53.366Z,76.60
2023-02-16T16:02:22.336Z,76.70
2023-02-16T16:04:55.162Z,76.70
2023-02-16T16:07:26.208Z,76.80
2023-02-16T16:09:55.191Z,76.90
2023-02-16T16:12:25.186Z,77.10
2023-02-16T16:14:55.361Z,77.00
2023-02-16T16:17:28.117Z,77.40
2023-02-16T16:19:57.836Z,77.60
2023-02-16T16:22:31.898Z,77.80
2023-02-16T16:25:00.325Z,77.90
2023-02-16T16:27:31.117Z,78.10
2023-02-16T16:30:27.122Z,78.10
2023-02-16T16:33:02.945Z,78.10
2023-02-16T16:35:36.279Z,78.10
2023-02-16T16:38:04.910Z,78.30
2023-02-16T16:40:35.444Z,78.40
2023-02-16T16:43:10.106Z,78.50
2023-02-16T16:45:39.864Z,78.70
2023-02-16T16:48:12.039Z,79.00
2023-02-16T16:50:40.314Z,79.30
2023-02-16T16:53:29.596Z,79.40
2023-02-16T16:55:58.002Z,79.60
2023-02-16T16:58:28.707Z,79.70
2023-02-16T17:00:56.783Z,79.70
2023-02-16T17:03:24.894Z,80.00
2023-02-16T17:05:53.230Z,80.10
2023-02-16T17:08:21.396Z,80.20
2023-02-16T17:10:49.489Z,80.40
2023-02-16T17:13:20.101Z,80.40
2023-02-16T17:15:52.976Z,80.40
2023-02-16T17:18:22.045Z,80.50
2023-02-16T17:20:51.299Z,80.60
2023-02-16T17:23:21.337Z,80.60
2023-02-16T17:25:50.259Z,80.70
2023-02-16T17:28:19.119Z,80.70
2023-02-16T17:30:47.806Z,80.70
2023-02-16T17:33:17.582Z,80.80
2023-02-16T17:35:46.212Z,80.80
2023-02-16T17:38:18.125Z,80.80
2023-02-16T17:40:47.843Z,80.90
2023-02-16T17:43:16.372Z,80.80
2023-02-16T17:45:44.745Z,80.90
2023-02-16T17:48:16.144Z,81.00
2023-02-16T17:53:38.831Z,81.00
2023-02-16T17:56:07.561Z,80.80
2023-02-16T17:58:36.048Z,80.80
2023-02-16T18:01:04.167Z,80.70
2023-02-16T18:03:32.938Z,80.70
2023-02-16T18:06:02.551Z,80.50
2023-02-16T18:08:31.126Z,80.40
2023-02-16T18:11:02.137Z,80.40
2023-02-16T18:13:30.951Z,80.30
2023-02-16T18:16:00.235Z,80.30
2023-02-16T18:18:29.673Z,80.10
2023-02-16T18:20:59.430Z,80.00
2023-02-16T18:23:30.272Z,79.80
2023-02-16T18:25:58.528Z,79.70
2023-02-16T18:28:27.949Z,79.50
2023-02-16T18:30:56.168Z,79.50
2023-02-16T18:33:25.658Z,79.40
2023-02-16T18:35:55.535Z,79.40
2023-02-16T18:38:23.863Z,79.50
2023-02-16T18:40:54.755Z,79.60
2023-02-16T18:43:24.058Z,79.90
2023-02-16T18:45:52.249Z,80.00
2023-02-16T18:48:20.427Z,80.00
2023-02-16T18:50:48.454Z,80.00
2023-02-16T18:53:16.938Z,80.10
2023-02-16T18:55:45.385Z,80.10
2023-02-16T18:58:16.106Z,80.30
2023-02-16T19:00:44.776Z,80.50
2023-02-16T19:03:13.487Z,80.70
2023-02-16T19:05:42.159Z,80.80
2023-02-16T19:08:10.699Z,80.90
2023-02-16T19:10:39.967Z,81.00
2023-02-16T19:13:08.751Z,80.90
2023-02-16T19:15:38.402Z,81.00
2023-02-16T19:18:06.868Z,81.00
2023-02-16T19:20:35.625Z,80.90
2023-02-16T19:23:06.138Z,81.00
2023-02-16T19:25:34.791Z,80.90
2023-02-16T19:28:03.018Z,80.90
2023-02-16T19:30:31.380Z,80.80
2023-02-16T19:33:00.903Z,80.80
2023-02-16T19:35:30.396Z,80.90
2023-02-16T19:37:59.123Z,80.80
2023-02-16T19:40:27.223Z,80.90
2023-02-16T19:42:55.899Z,80.90
2023-02-16T19:45:24.992Z,80.80
2023-02-16T19:47:53.465Z,80.50
2023-02-16T19:50:23.073Z,80.30
2023-02-16T19:52:51.180Z,80.40
2023-02-16T19:55:19.880Z,80.40
2023-02-16T19:57:48.169Z,80.40
2023-02-16T20:00:16.687Z,80.50
2023-02-16T20:02:45.040Z,80.40
2023-02-16T20:05:13.792Z,80.30
2023-02-16T20:07:43.269Z,80.20
2023-02-16T20:10:11.944Z,79.60
2023-02-16T20:12:40.322Z,79.60
2023-02-16T20:15:09.849Z,79.50
2023-02-16T20:17:37.937Z,79.30
2023-02-16T20:20:06.975Z,79.30
2023-02-16T20:22:36.594Z,79.30
2023-02-16T20:25:06.935Z,79.20
2023-02-16T20:27:34.987Z,79.50
2023-02-16T20:30:05.992Z,79.50
2023-02-16T20:32:35.089Z,79.30
2023-02-16T20:35:04.439Z,79.40
2023-02-16T20:37:33.013Z,79.50
2023-02-16T20:40:01.138Z,79.60
2023-02-16T20:42:30.513Z,79.60
2023-02-16T20:44:58.731Z,79.60
2023-02-16T20:47:27.523Z,79.70
2023-02-16T20:49:55.879Z,79.70
2023-02-16T20:52:24.510Z,79.80
2023-02-16T20:54:52.994Z,79.90
2023-02-16T20:57:26.754Z,79.90
2023-02-16T20:59:57.853Z,80.00
2023-02-16T21:02:28.555Z,80.10
2023-02-16T21:04:57.063Z,80.10
2023-02-16T21:07:28.341Z,80.40
2023-02-16T21:09:56.604Z,80.50
2023-02-16T21:12:26.813Z,80.70
2023-02-16T21:14:55.579Z,80.70
2023-02-16T21:17:25.394Z,80.70
2023-02-16T21:19:53.772Z,80.70
2023-02-16T21:22:22.358Z,80.70
2023-02-16T21:24:54.340Z,80.70
2023-02-16T21:27:22.319Z,80.80
2023-02-16T21:29:50.542Z,80.80
2023-02-16T21:32:18.687Z,80.80
2023-02-16T21:34:48.676Z,81.00
2023-02-16T21:37:19.025Z,81.10
2023-02-16T21:40:04.700Z,81.00
2023-02-16T21:42:34.253Z,80.90
2023-02-16T21:45:14.935Z,80.50
2023-02-16T21:48:01.489Z,80.30
2023-02-16T21:50:32.814Z,80.10
2023-02-16T21:53:01.163Z,79.70
2023-02-16T21:55:46.779Z,79.50
2023-02-16T21:58:15.681Z,79.10
2023-02-16T22:00:44.256Z,78.70
2023-02-16T22:03:14.372Z,78.50
2023-02-16T22:05:44.136Z,78.20
2023-02-16T22:08:14.234Z,77.90
2023-02-16T22:10:42.654Z,77.70
2023-02-16T22:13:11.179Z,77.30
2023-02-16T22:15:40.185Z,77.20
2023-02-16T22:18:08.422Z,77.00
2023-02-16T22:20:36.411Z,76.80
2023-02-16T22:23:06.250Z,76.70
2023-02-16T22:25:34.451Z,76.50
2023-02-16T22:28:02.892Z,76.20
2023-02-16T22:30:32.750Z,76.20
2023-02-16T22:33:00.813Z,76.10
2023-02-16T22:35:29.278Z,75.80
2023-02-16T22:37:57.695Z,76.10
2023-02-16T22:40:27.063Z,76.30
2023-02-16T22:42:54.925Z,76.50
2023-02-16T22:45:23.214Z,76.50
2023-02-16T22:47:54.830Z,76.60
2023-02-16T22:50:25.987Z,76.90
2023-02-16T22:52:54.193Z,77.40
2023-02-16T22:55:22.166Z,77.90
2023-02-16T22:57:52.590Z,78.50
2023-02-16T23:00:21.127Z,78.70
2023-02-16T23:02:49.869Z,79.00
2023-02-16T23:05:18.975Z,79.20
2023-02-16T23:07:47.253Z,79.30
2023-02-16T23:10:16.005Z,79.30
2023-02-16T23:12:44.543Z,79.30
2023-02-16T23:15:14.087Z,79.30
2023-02-16T23:17:43.024Z,79.30
2023-02-16T23:20:12.090Z,79.20
2023-02-16T23:22:40.660Z,79.40
2023-02-16T23:25:26.550Z,79.40
2023-02-16T23:27:55.509Z,79.40
2023-02-16T23:30:25.158Z,79.20
2023-02-16T23:32:53.495Z,79.40
2023-02-16T23:35:21.756Z,79.40
2023-02-16T23:37:50.455Z,79.30
2023-02-16T23:40:19.702Z,79.40
2023-02-16T23:42:48.128Z,79.50
2023-02-16T23:45:16.121Z,79.00
2023-02-16T23:47:45.579Z,78.90
2023-02-16T23:50:13.538Z,78.60
2023-02-16T23:52:42.117Z,78.40
2023-02-16T23:55:10.569Z,78.20
2023-02-16T23:57:38.563Z,77.90
